sensor_id;sensor_type;location;lat;lon;timestamp;P1;durP1;ratioP1;P2;durP2;ratioP2
4676;SDS011;2352;48.180;11.478;2023-03-21T00:03:02;3.00;;;2.70;;
4676;SDS011;2352;48.180;11.478;2023-03-21T00:06:07;2.37;;;2.17;;
4676;SDS011;2352;48.180;11.478;2023-03-21T00:09:12;2.67;;;2.47;;
4676;SDS011;2352;48.180;11.478;2023-03-21T00:12:15;2.40;;;2.20;;
4676;SDS011;2352;48.180;11.478;2023-03-21T00:15:22;2.33;;;2.23;;
4676;SDS011;2352;48.180;11.478;2023-03-21T00:18:38;3.37;;;2.77;;
4676;SDS011;2352;48.180;11.478;2023-03-21T00:21:42;3.50;;;2.37;;
4676;SDS011;2352;48.180;11.478;2023-03-21T00:25:06;2.30;;;2.17;;
4676;SDS011;2352;48.180;11.478;2023-03-21T00:28:10;2.43;;;2.23;;
4676;SDS011;2352;48.180;11.478;2023-03-21T00:31:15;2.93;;;2.73;;
4676;SDS011;2352;48.180;11.478;2023-03-21T00:34:18;3.83;;;3.27;;
4676;SDS011;2352;48.180;11.478;2023-03-21T00:37:40;2.70;;;2.50;;
4676;SDS011;2352;48.180;11.478;2023-03-21T00:40:44;4.80;;;2.83;;
4676;SDS011;2352;48.180;11.478;2023-03-21T00:43:49;2.47;;;2.27;;
4676;SDS011;2352;48.180;11.478;2023-03-21T00:46:57;2.97;;;2.77;;
4676;SDS011;2352;48.180;11.478;2023-03-21T00:50:08;2.73;;;2.53;;
4676;SDS011;2352;48.180;11.478;2023-03-21T00:53:13;2.90;;;2.70;;
4676;SDS011;2352;48.180;11.478;2023-03-21T00:56:16;2.67;;;2.47;;
4676;SDS011;2352;48.180;11.478;2023-03-21T00:59:19;2.93;;;2.73;;
4676;SDS011;2352;48.180;11.478;2023-03-21T01:02:23;2.80;;;2.60;;
4676;SDS011;2352;48.180;11.478;2023-03-21T01:05:27;2.57;;;2.37;;
4676;SDS011;2352;48.180;11.478;2023-03-21T01:08:46;2.70;;;2.53;;
4676;SDS011;2352;48.180;11.478;2023-03-21T01:11:53;2.90;;;2.70;;
4676;SDS011;2352;48.180;11.478;2023-03-21T01:14:56;2.87;;;2.67;;
4676;SDS011;2352;48.180;11.478;2023-03-21T01:18:00;2.47;;;2.37;;
4676;SDS011;2352;48.180;11.478;2023-03-21T01:21:05;3.03;;;2.83;;
4676;SDS011;2352;48.180;11.478;2023-03-21T01:24:10;3.27;;;2.40;;
4676;SDS011;2352;48.180;11.478;2023-03-21T01:27:13;3.67;;;2.33;;
4676;SDS011;2352;48.180;11.478;2023-03-21T01:30:16;2.83;;;2.63;;
4676;SDS011;2352;48.180;11.478;2023-03-21T01:33:25;2.33;;;2.13;;
4676;SDS011;2352;48.180;11.478;2023-03-21T01:36:28;3.40;;;2.60;;
4676;SDS011;2352;48.180;11.478;2023-03-21T01:39:31;2.23;;;2.03;;
4676;SDS011;2352;48.180;11.478;2023-03-21T01:42:35;2.07;;;1.93;;
4676;SDS011;2352;48.180;11.478;2023-03-21T01:46:07;2.43;;;2.33;;
4676;SDS011;2352;48.180;11.478;2023-03-21T01:49:30;3.03;;;2.83;;
4676;SDS011;2352;48.180;11.478;2023-03-21T01:52:38;6.33;;;3.23;;
4676;SDS011;2352;48.180;11.478;2023-03-21T01:55:41;2.77;;;2.57;;
4676;SDS011;2352;48.180;11.478;2023-03-21T01:58:44;2.40;;;2.20;;
4676;SDS011;2352;48.180;11.478;2023-03-21T02:01:48;2.70;;;2.50;;
4676;SDS011;2352;48.180;11.478;2023-03-21T02:04:53;2.83;;;2.63;;
4676;SDS011;2352;48.180;11.478;2023-03-21T02:07:58;2.87;;;2.67;;
4676;SDS011;2352;48.180;11.478;2023-03-21T02:11:02;2.90;;;2.60;;
4676;SDS011;2352;48.180;11.478;2023-03-21T02:14:13;2.47;;;2.30;;
4676;SDS011;2352;48.180;11.478;2023-03-21T02:17:31;2.93;;;2.67;;
4676;SDS011;2352;48.180;11.478;2023-03-21T02:24:39;2.70;;;2.50;;
4676;SDS011;2352;48.180;11.478;2023-03-21T02:28:08;2.23;;;2.13;;
4676;SDS011;2352;48.180;11.478;2023-03-21T02:31:18;2.10;;;2.00;;
4676;SDS011;2352;48.180;11.478;2023-03-21T02:34:44;2.30;;;2.10;;
4676;SDS011;2352;48.180;11.478;2023-03-21T02:38:06;2.63;;;2.33;;
4676;SDS011;2352;48.180;11.478;2023-03-21T02:41:15;2.23;;;2.10;;
4676;SDS011;2352;48.180;11.478;2023-03-21T02:44:23;3.43;;;2.67;;
4676;SDS011;2352;48.180;11.478;2023-03-21T02:47:32;3.67;;;2.50;;
4676;SDS011;2352;48.180;11.478;2023-03-21T02:50:39;2.80;;;2.50;;
4676;SDS011;2352;48.180;11.478;2023-03-21T02:53:48;1.53;;;1.43;;
4676;SDS011;2352;48.180;11.478;2023-03-21T02:57:13;2.67;;;2.47;;
4676;SDS011;2352;48.180;11.478;2023-03-21T03:00:19;2.30;;;2.20;;
4676;SDS011;2352;48.180;11.478;2023-03-21T03:03:24;2.63;;;2.43;;
4676;SDS011;2352;48.180;11.478;2023-03-21T03:06:36;1.83;;;1.73;;
4676;SDS011;2352;48.180;11.478;2023-03-21T03:10:05;2.90;;;2.37;;
4676;SDS011;2352;48.180;11.478;2023-03-21T03:13:20;2.50;;;2.30;;
4676;SDS011;2352;48.180;11.478;2023-03-21T03:16:37;2.87;;;2.67;;
4676;SDS011;2352;48.180;11.478;2023-03-21T03:19:49;2.40;;;2.30;;
4676;SDS011;2352;48.180;11.478;2023-03-21T03:23:16;4.30;;;2.53;;
4676;SDS011;2352;48.180;11.478;2023-03-21T03:26:29;2.00;;;1.87;;
4676;SDS011;2352;48.180;11.478;2023-03-21T03:29:36;1.90;;;1.60;;
4676;SDS011;2352;48.180;11.478;2023-03-21T03:32:43;2.37;;;2.27;;
4676;SDS011;2352;48.180;11.478;2023-03-21T03:35:49;2.77;;;2.57;;
4676;SDS011;2352;48.180;11.478;2023-03-21T03:39:07;5.17;;;2.20;;
4676;SDS011;2352;48.180;11.478;2023-03-21T03:42:14;2.50;;;2.30;;
4676;SDS011;2352;48.180;11.478;2023-03-21T03:45:29;2.90;;;2.70;;
4676;SDS011;2352;48.180;11.478;2023-03-21T03:48:37;2.67;;;2.47;;
4676;SDS011;2352;48.180;11.478;2023-03-21T03:51:48;2.17;;;2.00;;
4676;SDS011;2352;48.180;11.478;2023-03-21T03:54:55;2.50;;;2.30;;
4676;SDS011;2352;48.180;11.478;2023-03-21T03:58:01;2.10;;;2.00;;
4676;SDS011;2352;48.180;11.478;2023-03-21T04:01:10;2.00;;;1.90;;
4676;SDS011;2352;48.180;11.478;2023-03-21T04:04:14;2.93;;;2.63;;
4676;SDS011;2352;48.180;11.478;2023-03-21T04:07:17;2.77;;;2.47;;
4676;SDS011;2352;48.180;11.478;2023-03-21T04:10:21;2.43;;;2.03;;
4676;SDS011;2352;48.180;11.478;2023-03-21T04:13:26;2.63;;;2.43;;
4676;SDS011;2352;48.180;11.478;2023-03-21T04:16:28;5.50;;;2.30;;
4676;SDS011;2352;48.180;11.478;2023-03-21T04:19:35;2.73;;;2.53;;
4676;SDS011;2352;48.180;11.478;2023-03-21T04:22:38;2.70;;;2.50;;
4676;SDS011;2352;48.180;11.478;2023-03-21T04:25:42;3.00;;;2.53;;
4676;SDS011;2352;48.180;11.478;2023-03-21T04:28:58;2.57;;;2.37;;
4676;SDS011;2352;48.180;11.478;2023-03-21T04:32:01;2.60;;;2.40;;
4676;SDS011;2352;48.180;11.478;2023-03-21T04:35:04;2.40;;;2.20;;
4676;SDS011;2352;48.180;11.478;2023-03-21T04:38:08;2.50;;;2.30;;
4676;SDS011;2352;48.180;11.478;2023-03-21T04:41:11;2.80;;;2.60;;
4676;SDS011;2352;48.180;11.478;2023-03-21T04:44:15;2.07;;;1.97;;
4676;SDS011;2352;48.180;11.478;2023-03-21T04:47:19;3.43;;;2.40;;
4676;SDS011;2352;48.180;11.478;2023-03-21T04:50:22;5.07;;;2.67;;
4676;SDS011;2352;48.180;11.478;2023-03-21T04:53:24;5.27;;;2.27;;
4676;SDS011;2352;48.180;11.478;2023-03-21T04:56:28;3.10;;;2.53;;
4676;SDS011;2352;48.180;11.478;2023-03-21T04:59:33;2.93;;;2.57;;
4676;SDS011;2352;48.180;11.478;2023-03-21T05:02:36;2.80;;;2.60;;
4676;SDS011;2352;48.180;11.478;2023-03-21T05:05:39;3.20;;;3.00;;
4676;SDS011;2352;48.180;11.478;2023-03-21T05:08:42;3.53;;;3.23;;
4676;SDS011;2352;48.180;11.478;2023-03-21T05:11:45;4.33;;;3.27;;
4676;SDS011;2352;48.180;11.478;2023-03-21T05:14:50;3.33;;;3.13;;
4676;SDS011;2352;48.180;11.478;2023-03-21T05:17:53;2.97;;;2.77;;
4676;SDS011;2352;48.180;11.478;2023-03-21T05:20:58;3.13;;;2.93;;
4676;SDS011;2352;48.180;11.478;2023-03-21T05:24:01;2.83;;;2.63;;
4676;SDS011;2352;48.180;11.478;2023-03-21T05:27:04;3.00;;;2.80;;
4676;SDS011;2352;48.180;11.478;2023-03-21T05:30:09;3.40;;;3.20;;
4676;SDS011;2352;48.180;11.478;2023-03-21T05:33:14;3.30;;;3.00;;
4676;SDS011;2352;48.180;11.478;2023-03-21T05:36:17;3.03;;;2.73;;
4676;SDS011;2352;48.180;11.478;2023-03-21T05:39:20;7.90;;;3.50;;
4676;SDS011;2352;48.180;11.478;2023-03-21T05:42:22;5.47;;;2.90;;
4676;SDS011;2352;48.180;11.478;2023-03-21T05:45:27;2.83;;;2.63;;
4676;SDS011;2352;48.180;11.478;2023-03-21T05:48:30;3.37;;;3.07;;
4676;SDS011;2352;48.180;11.478;2023-03-21T05:51:34;4.07;;;3.77;;
4676;SDS011;2352;48.180;11.478;2023-03-21T05:54:37;6.87;;;3.90;;
4676;SDS011;2352;48.180;11.478;2023-03-21T05:57:40;7.20;;;3.57;;
4676;SDS011;2352;48.180;11.478;2023-03-21T06:00:44;4.80;;;4.43;;
4676;SDS011;2352;48.180;11.478;2023-03-21T06:03:47;3.93;;;3.63;;
4676;SDS011;2352;48.180;11.478;2023-03-21T06:06:50;4.33;;;3.87;;
4676;SDS011;2352;48.180;11.478;2023-03-21T06:09:53;4.13;;;3.17;;
4676;SDS011;2352;48.180;11.478;2023-03-21T06:12:56;4.30;;;3.30;;
4676;SDS011;2352;48.180;11.478;2023-03-21T06:16:00;3.33;;;3.07;;
4676;SDS011;2352;48.180;11.478;2023-03-21T06:19:03;4.00;;;3.67;;
4676;SDS011;2352;48.180;11.478;2023-03-21T06:22:06;3.97;;;3.40;;
4676;SDS011;2352;48.180;11.478;2023-03-21T06:25:09;4.07;;;3.67;;
4676;SDS011;2352;48.180;11.478;2023-03-21T06:28:12;4.00;;;3.67;;
4676;SDS011;2352;48.180;11.478;2023-03-21T06:31:17;3.50;;;3.20;;
4676;SDS011;2352;48.180;11.478;2023-03-21T06:34:22;9.90;;;3.33;;
4676;SDS011;2352;48.180;11.478;2023-03-21T06:37:25;7.03;;;4.07;;
4676;SDS011;2352;48.180;11.478;2023-03-21T06:40:28;4.60;;;4.27;;
4676;SDS011;2352;48.180;11.478;2023-03-21T06:43:31;4.83;;;4.43;;
4676;SDS011;2352;48.180;11.478;2023-03-21T06:46:35;13.33;;;10.20;;
4676;SDS011;2352;48.180;11.478;2023-03-21T06:49:38;25.07;;;13.87;;
4676;SDS011;2352;48.180;11.478;2023-03-21T06:52:42;6.27;;;5.60;;
4676;SDS011;2352;48.180;11.478;2023-03-21T06:55:47;5.30;;;3.83;;
4676;SDS011;2352;48.180;11.478;2023-03-21T06:58:50;3.97;;;3.67;;
4676;SDS011;2352;48.180;11.478;2023-03-21T07:01:54;3.70;;;3.20;;
4676;SDS011;2352;48.180;11.478;2023-03-21T07:04:57;8.97;;;6.13;;
4676;SDS011;2352;48.180;11.478;2023-03-21T07:08:00;4.33;;;4.03;;
4676;SDS011;2352;48.180;11.478;2023-03-21T07:11:03;3.53;;;3.23;;
4676;SDS011;2352;48.180;11.478;2023-03-21T07:14:07;3.93;;;3.63;;
4676;SDS011;2352;48.180;11.478;2023-03-21T07:17:11;4.53;;;4.13;;
4676;SDS011;2352;48.180;11.478;2023-03-21T07:20:14;3.80;;;3.50;;
4676;SDS011;2352;48.180;11.478;2023-03-21T07:23:20;7.97;;;6.37;;
4676;SDS011;2352;48.180;11.478;2023-03-21T07:26:24;5.43;;;4.93;;
4676;SDS011;2352;48.180;11.478;2023-03-21T07:29:26;5.90;;;3.60;;
4676;SDS011;2352;48.180;11.478;2023-03-21T07:32:32;4.90;;;3.57;;
4676;SDS011;2352;48.180;11.478;2023-03-21T07:35:38;4.33;;;4.03;;
4676;SDS011;2352;48.180;11.478;2023-03-21T07:38:41;8.13;;;5.80;;
4676;SDS011;2352;48.180;11.478;2023-03-21T07:41:45;4.57;;;4.17;;
4676;SDS011;2352;48.180;11.478;2023-03-21T07:44:48;6.57;;;5.03;;
4676;SDS011;2352;48.180;11.478;2023-03-21T07:47:54;4.97;;;4.47;;
4676;SDS011;2352;48.180;11.478;2023-03-21T07:50:57;3.93;;;3.63;;
4676;SDS011;2352;48.180;11.478;2023-03-21T07:54:00;3.73;;;3.43;;
4676;SDS011;2352;48.180;11.478;2023-03-21T07:57:03;3.60;;;3.30;;
4676;SDS011;2352;48.180;11.478;2023-03-21T08:00:06;3.80;;;3.57;;
4676;SDS011;2352;48.180;11.478;2023-03-21T08:03:14;9.23;;;4.73;;
4676;SDS011;2352;48.180;11.478;2023-03-21T08:06:18;8.50;;;4.37;;
4676;SDS011;2352;48.180;11.478;2023-03-21T08:09:21;3.83;;;3.53;;
4676;SDS011;2352;48.180;11.478;2023-03-21T08:12:23;3.90;;;3.60;;
4676;SDS011;2352;48.180;11.478;2023-03-21T08:15:26;4.80;;;4.40;;
4676;SDS011;2352;48.180;11.478;2023-03-21T08:18:30;4.57;;;4.17;;
4676;SDS011;2352;48.180;11.478;2023-03-21T08:21:33;5.30;;;4.20;;
4676;SDS011;2352;48.180;11.478;2023-03-21T08:24:38;6.83;;;3.53;;
4676;SDS011;2352;48.180;11.478;2023-03-21T08:27:41;3.63;;;3.33;;
4676;SDS011;2352;48.180;11.478;2023-03-21T08:30:45;4.17;;;3.87;;
4676;SDS011;2352;48.180;11.478;2023-03-21T08:33:50;5.30;;;4.00;;
4676;SDS011;2352;48.180;11.478;2023-03-21T08:36:54;4.07;;;3.77;;
4676;SDS011;2352;48.180;11.478;2023-03-21T08:39:57;4.30;;;3.90;;
4676;SDS011;2352;48.180;11.478;2023-03-21T08:43:00;4.63;;;4.23;;
4676;SDS011;2352;48.180;11.478;2023-03-21T08:46:04;4.03;;;3.63;;
4676;SDS011;2352;48.180;11.478;2023-03-21T08:49:08;4.87;;;4.47;;
4676;SDS011;2352;48.180;11.478;2023-03-21T08:52:12;4.27;;;3.97;;
4676;SDS011;2352;48.180;11.478;2023-03-21T08:55:16;6.07;;;5.57;;
4676;SDS011;2352;48.180;11.478;2023-03-21T08:58:19;4.77;;;4.37;;
4676;SDS011;2352;48.180;11.478;2023-03-21T09:01:23;5.77;;;5.27;;
4676;SDS011;2352;48.180;11.478;2023-03-21T09:04:28;5.20;;;4.80;;
4676;SDS011;2352;48.180;11.478;2023-03-21T09:07:32;5.37;;;4.87;;
4676;SDS011;2352;48.180;11.478;2023-03-21T09:10:36;5.17;;;3.97;;
4676;SDS011;2352;48.180;11.478;2023-03-21T09:13:39;5.03;;;4.53;;
4676;SDS011;2352;48.180;11.478;2023-03-21T09:16:42;4.23;;;3.80;;
4676;SDS011;2352;48.180;11.478;2023-03-21T09:19:46;4.93;;;4.53;;
4676;SDS011;2352;48.180;11.478;2023-03-21T09:22:49;5.23;;;4.33;;
4676;SDS011;2352;48.180;11.478;2023-03-21T09:25:53;4.63;;;3.67;;
4676;SDS011;2352;48.180;11.478;2023-03-21T09:28:56;4.27;;;3.97;;
4676;SDS011;2352;48.180;11.478;2023-03-21T09:32:00;3.93;;;3.63;;
4676;SDS011;2352;48.180;11.478;2023-03-21T09:35:08;2.77;;;2.57;;
4676;SDS011;2352;48.180;11.478;2023-03-21T09:38:12;3.20;;;3.00;;
4676;SDS011;2352;48.180;11.478;2023-03-21T09:41:19;4.37;;;3.20;;
4676;SDS011;2352;48.180;11.478;2023-03-21T09:44:37;4.10;;;3.50;;
4676;SDS011;2352;48.180;11.478;2023-03-21T09:47:50;3.43;;;3.17;;
4676;SDS011;2352;48.180;11.478;2023-03-21T09:50:55;4.80;;;3.17;;
4676;SDS011;2352;48.180;11.478;2023-03-21T09:53:59;2.33;;;2.10;;
4676;SDS011;2352;48.180;11.478;2023-03-21T09:57:10;3.27;;;2.97;;
4676;SDS011;2352;48.180;11.478;2023-03-21T10:00:23;3.63;;;3.33;;
4676;SDS011;2352;48.180;11.478;2023-03-21T10:03:30;3.20;;;2.87;;
4676;SDS011;2352;48.180;11.478;2023-03-21T10:06:37;4.30;;;2.67;;
4676;SDS011;2352;48.180;11.478;2023-03-21T10:09:43;5.43;;;2.73;;
4676;SDS011;2352;48.180;11.478;2023-03-21T10:12:46;3.10;;;2.80;;
4676;SDS011;2352;48.180;11.478;2023-03-21T10:15:53;2.90;;;2.70;;
4676;SDS011;2352;48.180;11.478;2023-03-21T10:18:59;2.73;;;2.53;;
4676;SDS011;2352;48.180;11.478;2023-03-21T10:22:08;3.00;;;2.80;;
4676;SDS011;2352;48.180;11.478;2023-03-21T10:25:13;6.17;;;3.50;;
4676;SDS011;2352;48.180;11.478;2023-03-21T10:28:19;3.13;;;2.83;;
4676;SDS011;2352;48.180;11.478;2023-03-21T10:31:25;4.27;;;2.43;;
4676;SDS011;2352;48.180;11.478;2023-03-21T10:34:30;3.43;;;3.13;;
4676;SDS011;2352;48.180;11.478;2023-03-21T10:37:38;3.10;;;2.90;;
4676;SDS011;2352;48.180;11.478;2023-03-21T10:40:41;2.27;;;2.07;;
4676;SDS011;2352;48.180;11.478;2023-03-21T10:43:44;3.20;;;2.73;;
4676;SDS011;2352;48.180;11.478;2023-03-21T10:46:52;2.43;;;2.23;;
4676;SDS011;2352;48.180;11.478;2023-03-21T10:50:00;2.30;;;2.20;;
4676;SDS011;2352;48.180;11.478;2023-03-21T10:53:13;2.93;;;2.70;;
4676;SDS011;2352;48.180;11.478;2023-03-21T10:56:21;2.47;;;2.27;;
4676;SDS011;2352;48.180;11.478;2023-03-21T10:59:28;1.80;;;1.70;;
4676;SDS011;2352;48.180;11.478;2023-03-21T11:02:39;2.23;;;2.10;;
4676;SDS011;2352;48.180;11.478;2023-03-21T11:05:43;2.20;;;2.03;;
4676;SDS011;2352;48.180;11.478;2023-03-21T11:08:48;2.47;;;2.27;;
4676;SDS011;2352;48.180;11.478;2023-03-21T11:12:00;2.70;;;1.80;;
4676;SDS011;2352;48.180;11.478;2023-03-21T11:15:15;2.43;;;2.23;;
4676;SDS011;2352;48.180;11.478;2023-03-21T11:18:29;1.90;;;1.80;;
4676;SDS011;2352;48.180;11.478;2023-03-21T11:21:34;2.30;;;2.10;;
4676;SDS011;2352;48.180;11.478;2023-03-21T11:24:40;2.43;;;2.23;;
4676;SDS011;2352;48.180;11.478;2023-03-21T11:27:48;2.30;;;2.20;;
4676;SDS011;2352;48.180;11.478;2023-03-21T11:30:52;3.23;;;2.77;;
4676;SDS011;2352;48.180;11.478;2023-03-21T11:33:57;3.00;;;2.80;;
4676;SDS011;2352;48.180;11.478;2023-03-21T11:37:01;3.90;;;2.17;;
4676;SDS011;2352;48.180;11.478;2023-03-21T11:40:12;2.27;;;2.17;;
4676;SDS011;2352;48.180;11.478;2023-03-21T11:43:27;4.43;;;2.03;;
4676;SDS011;2352;48.180;11.478;2023-03-21T11:46:32;1.77;;;1.67;;
4676;SDS011;2352;48.180;11.478;2023-03-21T11:49:41;1.90;;;1.80;;
4676;SDS011;2352;48.180;11.478;2023-03-21T11:52:47;3.00;;;2.67;;
4676;SDS011;2352;48.180;11.478;2023-03-21T11:56:12;1.67;;;1.57;;
4676;SDS011;2352;48.180;11.478;2023-03-21T11:59:30;1.87;;;1.73;;
4676;SDS011;2352;48.180;11.478;2023-03-21T12:02:47;1.87;;;1.47;;
4676;SDS011;2352;48.180;11.478;2023-03-21T12:06:04;1.63;;;1.53;;
4676;SDS011;2352;48.180;11.478;2023-03-21T12:09:18;1.60;;;1.50;;
4676;SDS011;2352;48.180;11.478;2023-03-21T12:12:39;2.20;;;2.00;;
4676;SDS011;2352;48.180;11.478;2023-03-21T12:15:52;1.63;;;1.53;;
4676;SDS011;2352;48.180;11.478;2023-03-21T12:19:03;2.20;;;2.10;;
4676;SDS011;2352;48.180;11.478;2023-03-21T12:22:18;2.67;;;1.93;;
4676;SDS011;2352;48.180;11.478;2023-03-21T12:25:30;2.80;;;1.63;;
4676;SDS011;2352;48.180;11.478;2023-03-21T12:28:40;1.73;;;1.63;;
4676;SDS011;2352;48.180;11.478;2023-03-21T12:31:55;5.47;;;2.25;;
4676;SDS011;2352;48.180;11.478;2023-03-21T12:35:14;2.03;;;1.93;;
4676;SDS011;2352;48.180;11.478;2023-03-21T12:38:27;2.20;;;2.10;;
4676;SDS011;2352;48.180;11.478;2023-03-21T12:41:42;2.88;;;2.58;;
4676;SDS011;2352;48.180;11.478;2023-03-21T12:44:48;2.60;;;2.38;;
4676;SDS011;2352;48.180;11.478;2023-03-21T12:47:58;4.77;;;2.90;;
4676;SDS011;2352;48.180;11.478;2023-03-21T12:51:08;3.20;;;2.43;;
4676;SDS011;2352;48.180;11.478;2023-03-21T12:54:16;2.35;;;2.15;;
4676;SDS011;2352;48.180;11.478;2023-03-21T12:57:27;3.08;;;2.85;;
4676;SDS011;2352;48.180;11.478;2023-03-21T13:00:38;2.78;;;2.53;;
4676;SDS011;2352;48.180;11.478;2023-03-21T13:03:45;2.53;;;2.42;;
4676;SDS011;2352;48.180;11.478;2023-03-21T13:06:52;2.77;;;2.57;;
4676;SDS011;2352;48.180;11.478;2023-03-21T13:09:57;3.33;;;3.13;;
4676;SDS011;2352;48.180;11.478;2023-03-21T13:13:08;2.95;;;2.75;;
4676;SDS011;2352;48.180;11.478;2023-03-21T13:16:21;2.50;;;2.30;;
4676;SDS011;2352;48.180;11.478;2023-03-21T13:19:29;2.42;;;2.20;;
4676;SDS011;2352;48.180;11.478;2023-03-21T13:22:38;1.70;;;1.60;;
4676;SDS011;2352;48.180;11.478;2023-03-21T13:25:41;2.25;;;2.05;;
4676;SDS011;2352;48.180;11.478;2023-03-21T13:28:47;2.38;;;2.17;;
4676;SDS011;2352;48.180;11.478;2023-03-21T13:31:51;2.42;;;2.22;;
4676;SDS011;2352;48.180;11.478;2023-03-21T13:34:58;2.40;;;2.22;;
4676;SDS011;2352;48.180;11.478;2023-03-21T13:38:03;2.50;;;2.33;;
4676;SDS011;2352;48.180;11.478;2023-03-21T13:41:14;2.15;;;2.05;;
4676;SDS011;2352;48.180;11.478;2023-03-21T13:44:21;2.42;;;2.13;;
4676;SDS011;2352;48.180;11.478;2023-03-21T13:50:58;1.60;;;1.50;;
4676;SDS011;2352;48.180;11.478;2023-03-21T13:54:02;2.28;;;2.15;;
4676;SDS011;2352;48.180;11.478;2023-03-21T13:57:21;1.95;;;1.85;;
4676;SDS011;2352;48.180;11.478;2023-03-21T14:00:39;1.70;;;1.60;;
4676;SDS011;2352;48.180;11.478;2023-03-21T14:03:44;2.88;;;1.85;;
4676;SDS011;2352;48.180;11.478;2023-03-21T14:06:48;1.30;;;1.20;;
4676;SDS011;2352;48.180;11.478;2023-03-21T14:09:56;2.67;;;1.50;;
4676;SDS011;2352;48.180;11.478;2023-03-21T14:13:02;1.60;;;1.50;;
4676;SDS011;2352;48.180;11.478;2023-03-21T14:16:08;1.58;;;1.48;;
4676;SDS011;2352;48.180;11.478;2023-03-21T14:19:16;2.50;;;2.30;;
4676;SDS011;2352;48.180;11.478;2023-03-21T14:22:19;2.10;;;2.00;;
4676;SDS011;2352;48.180;11.478;2023-03-21T14:25:22;2.35;;;1.77;;
4676;SDS011;2352;48.180;11.478;2023-03-21T14:28:31;1.70;;;1.60;;
4676;SDS011;2352;48.180;11.478;2023-03-21T14:31:36;1.90;;;1.60;;
4676;SDS011;2352;48.180;11.478;2023-03-21T14:34:42;2.38;;;1.95;;
4676;SDS011;2352;48.180;11.478;2023-03-21T14:37:46;2.03;;;1.92;;
4676;SDS011;2352;48.180;11.478;2023-03-21T14:40:51;1.65;;;1.55;;
4676;SDS011;2352;48.180;11.478;2023-03-21T14:44:01;1.75;;;1.65;;
4676;SDS011;2352;48.180;11.478;2023-03-21T14:47:06;1.88;;;1.70;;
4676;SDS011;2352;48.180;11.478;2023-03-21T14:50:11;5.35;;;2.10;;
4676;SDS011;2352;48.180;11.478;2023-03-21T14:53:15;2.35;;;2.03;;
4676;SDS011;2352;48.180;11.478;2023-03-21T14:56:21;2.38;;;2.17;;
4676;SDS011;2352;48.180;11.478;2023-03-21T14:59:29;2.25;;;2.15;;
4676;SDS011;2352;48.180;11.478;2023-03-21T15:02:35;3.65;;;2.53;;
4676;SDS011;2352;48.180;11.478;2023-03-21T15:05:42;2.63;;;2.40;;
4676;SDS011;2352;48.180;11.478;2023-03-21T15:08:52;2.87;;;2.67;;
4676;SDS011;2352;48.180;11.478;2023-03-21T15:11:57;2.33;;;2.20;;
4676;SDS011;2352;48.180;11.478;2023-03-21T15:15:00;2.90;;;2.70;;
4676;SDS011;2352;48.180;11.478;2023-03-21T15:18:04;3.00;;;2.47;;
4676;SDS011;2352;48.180;11.478;2023-03-21T15:21:11;2.72;;;2.53;;
4676;SDS011;2352;48.180;11.478;2023-03-21T15:24:20;3.83;;;3.10;;
4676;SDS011;2352;48.180;11.478;2023-03-21T15:27:27;4.37;;;2.70;;
4676;SDS011;2352;48.180;11.478;2023-03-21T15:30:32;3.83;;;2.30;;
4676;SDS011;2352;48.180;11.478;2023-03-21T15:33:36;2.23;;;2.10;;
4676;SDS011;2352;48.180;11.478;2023-03-21T15:36:43;3.87;;;2.77;;
4676;SDS011;2352;48.180;11.478;2023-03-21T15:39:48;3.57;;;3.27;;
4676;SDS011;2352;48.180;11.478;2023-03-21T15:43:02;3.20;;;2.70;;
4676;SDS011;2352;48.180;11.478;2023-03-21T15:46:11;3.03;;;2.83;;
4676;SDS011;2352;48.180;11.478;2023-03-21T15:49:17;2.53;;;2.33;;
4676;SDS011;2352;48.180;11.478;2023-03-21T15:52:26;3.00;;;2.80;;
4676;SDS011;2352;48.180;11.478;2023-03-21T15:55:33;3.50;;;2.97;;
4676;SDS011;2352;48.180;11.478;2023-03-21T15:58:41;3.63;;;2.73;;
4676;SDS011;2352;48.180;11.478;2023-03-21T16:01:46;3.10;;;2.90;;
4676;SDS011;2352;48.180;11.478;2023-03-21T16:04:53;2.67;;;2.47;;
4676;SDS011;2352;48.180;11.478;2023-03-21T16:07:59;2.93;;;2.70;;
4676;SDS011;2352;48.180;11.478;2023-03-21T16:11:07;3.43;;;3.07;;
4676;SDS011;2352;48.180;11.478;2023-03-21T16:14:17;4.03;;;3.13;;
4676;SDS011;2352;48.180;11.478;2023-03-21T16:17:21;2.77;;;2.57;;
4676;SDS011;2352;48.180;11.478;2023-03-21T16:20:30;3.63;;;3.33;;
4676;SDS011;2352;48.180;11.478;2023-03-21T16:23:36;4.07;;;3.30;;
4676;SDS011;2352;48.180;11.478;2023-03-21T16:26:41;5.03;;;3.43;;
4676;SDS011;2352;48.180;11.478;2023-03-21T16:29:45;2.90;;;2.70;;
4676;SDS011;2352;48.180;11.478;2023-03-21T16:32:49;3.20;;;3.00;;
4676;SDS011;2352;48.180;11.478;2023-03-21T16:35:52;3.27;;;3.07;;
4676;SDS011;2352;48.180;11.478;2023-03-21T16:38:59;3.60;;;3.30;;
4676;SDS011;2352;48.180;11.478;2023-03-21T16:42:02;4.83;;;3.13;;
4676;SDS011;2352;48.180;11.478;2023-03-21T16:45:06;6.00;;;4.03;;
4676;SDS011;2352;48.180;11.478;2023-03-21T16:48:10;3.10;;;2.90;;
4676;SDS011;2352;48.180;11.478;2023-03-21T16:51:17;3.93;;;3.53;;
4676;SDS011;2352;48.180;11.478;2023-03-21T16:54:23;4.37;;;4.07;;
4676;SDS011;2352;48.180;11.478;2023-03-21T16:57:26;5.50;;;4.67;;
4676;SDS011;2352;48.180;11.478;2023-03-21T17:00:32;4.37;;;4.07;;
4676;SDS011;2352;48.180;11.478;2023-03-21T17:03:34;3.50;;;3.20;;
4676;SDS011;2352;48.180;11.478;2023-03-21T17:06:40;4.50;;;4.10;;
4676;SDS011;2352;48.180;11.478;2023-03-21T17:09:47;4.33;;;4.07;;
4676;SDS011;2352;48.180;11.478;2023-03-21T17:12:50;6.73;;;3.93;;
4676;SDS011;2352;48.180;11.478;2023-03-21T17:15:53;5.47;;;3.23;;
4676;SDS011;2352;48.180;11.478;2023-03-21T17:18:56;3.77;;;3.47;;
4676;SDS011;2352;48.180;11.478;2023-03-21T17:22:00;4.50;;;3.80;;
4676;SDS011;2352;48.180;11.478;2023-03-21T17:25:04;4.03;;;3.70;;
4676;SDS011;2352;48.180;11.478;2023-03-21T17:28:07;4.90;;;4.13;;
4676;SDS011;2352;48.180;11.478;2023-03-21T17:31:11;4.33;;;3.93;;
4676;SDS011;2352;48.180;11.478;2023-03-21T17:34:15;4.30;;;4.00;;
4676;SDS011;2352;48.180;11.478;2023-03-21T17:37:18;6.13;;;3.90;;
4676;SDS011;2352;48.180;11.478;2023-03-21T17:40:24;4.70;;;4.37;;
4676;SDS011;2352;48.180;11.478;2023-03-21T17:43:28;4.43;;;4.13;;
4676;SDS011;2352;48.180;11.478;2023-03-21T17:46:32;4.53;;;4.23;;
4676;SDS011;2352;48.180;11.478;2023-03-21T17:49:37;4.83;;;4.43;;
4676;SDS011;2352;48.180;11.478;2023-03-21T17:52:40;5.10;;;4.70;;
4676;SDS011;2352;48.180;11.478;2023-03-21T17:55:44;5.90;;;5.40;;
4676;SDS011;2352;48.180;11.478;2023-03-21T17:58:47;7.00;;;5.50;;
4676;SDS011;2352;48.180;11.478;2023-03-21T18:01:50;5.77;;;5.13;;
4676;SDS011;2352;48.180;11.478;2023-03-21T18:04:53;12.97;;;5.03;;
4676;SDS011;2352;48.180;11.478;2023-03-21T18:07:56;5.47;;;4.93;;
4676;SDS011;2352;48.180;11.478;2023-03-21T18:11:15;11.97;;;5.17;;
4676;SDS011;2352;48.180;11.478;2023-03-21T18:14:19;5.53;;;5.03;;
4676;SDS011;2352;48.180;11.478;2023-03-21T18:17:28;4.97;;;4.57;;
4676;SDS011;2352;48.180;11.478;2023-03-21T18:20:31;5.87;;;4.97;;
4676;SDS011;2352;48.180;11.478;2023-03-21T18:23:52;5.17;;;4.77;;
4676;SDS011;2352;48.180;11.478;2023-03-21T18:26:56;5.87;;;4.83;;
4676;SDS011;2352;48.180;11.478;2023-03-21T18:29:59;5.13;;;4.63;;
4676;SDS011;2352;48.180;11.478;2023-03-21T18:33:22;5.20;;;4.80;;
4676;SDS011;2352;48.180;11.478;2023-03-21T18:36:25;7.70;;;5.30;;
4676;SDS011;2352;48.180;11.478;2023-03-21T18:39:29;5.43;;;4.90;;
4676;SDS011;2352;48.180;11.478;2023-03-21T18:42:34;6.17;;;5.07;;
4676;SDS011;2352;48.180;11.478;2023-03-21T18:45:37;6.50;;;4.83;;
4676;SDS011;2352;48.180;11.478;2023-03-21T18:48:40;4.13;;;3.83;;
4676;SDS011;2352;48.180;11.478;2023-03-21T18:51:43;5.07;;;4.67;;
4676;SDS011;2352;48.180;11.478;2023-03-21T18:54:47;4.97;;;4.50;;
4676;SDS011;2352;48.180;11.478;2023-03-21T18:57:51;7.13;;;4.53;;
4676;SDS011;2352;48.180;11.478;2023-03-21T19:00:55;6.53;;;4.97;;
4676;SDS011;2352;48.180;11.478;2023-03-21T19:03:58;5.37;;;4.97;;
4676;SDS011;2352;48.180;11.478;2023-03-21T19:07:21;5.00;;;4.60;;
4676;SDS011;2352;48.180;11.478;2023-03-21T19:10:25;5.53;;;4.63;;